sensor_id;sensor_type;location;lat;lon;timestamp;P1;durP1;ratioP1;P2;durP2;ratioP2
53650;SDS011;39552;45.776;15.892;2023-02-01T00:01:05;92.18;;;44.25;;
53650;SDS011;39552;45.776;15.892;2023-02-01T00:03:32;94.30;;;45.58;;
53650;SDS011;39552;45.776;15.892;2023-02-01T00:05:59;100.00;;;46.70;;
53650;SDS011;39552;45.776;15.892;2023-02-01T00:08:26;94.72;;;45.88;;
53650;SDS011;39552;45.776;15.892;2023-02-01T00:10:59;88.25;;;42.67;;
53650;SDS011;39552;45.776;15.892;2023-02-01T00:13:31;90.50;;;44.78;;
53650;SDS011;39552;45.776;15.892;2023-02-01T00:16:02;80.35;;;40.63;;
53650;SDS011;39552;45.776;15.892;2023-02-01T00:18:30;87.85;;;43.10;;
53650;SDS011;39552;45.776;15.892;2023-02-01T00:20:56;90.38;;;43.30;;
53650;SDS011;39552;45.776;15.892;2023-02-01T00:23:23;92.22;;;45.22;;
53650;SDS011;39552;45.776;15.892;2023-02-01T00:25:50;86.60;;;44.08;;
53650;SDS011;39552;45.776;15.892;2023-02-01T00:28:17;81.30;;;41.72;;
53650;SDS011;39552;45.776;15.892;2023-02-01T00:30:45;83.00;;;42.20;;
53650;SDS011;39552;45.776;15.892;2023-02-01T00:33:12;80.78;;;41.03;;
53650;SDS011;39552;45.776;15.892;2023-02-01T00:35:38;80.25;;;41.28;;
53650;SDS011;39552;45.776;15.892;2023-02-01T00:38:05;76.47;;;39.15;;
53650;SDS011;39552;45.776;15.892;2023-02-01T00:40:32;70.55;;;37.80;;
53650;SDS011;39552;45.776;15.892;2023-02-01T00:43:06;75.28;;;39.33;;
53650;SDS011;39552;45.776;15.892;2023-02-01T00:45:33;68.53;;;36.47;;
53650;SDS011;39552;45.776;15.892;2023-02-01T00:48:01;66.47;;;34.47;;
53650;SDS011;39552;45.776;15.892;2023-02-01T00:50:28;68.55;;;33.45;;
53650;SDS011;39552;45.776;15.892;2023-02-01T00:52:54;59.22;;;31.88;;
53650;SDS011;39552;45.776;15.892;2023-02-01T00:55:21;56.22;;;28.50;;
53650;SDS011;39552;45.776;15.892;2023-02-01T00:57:48;50.95;;;27.10;;
53650;SDS011;39552;45.776;15.892;2023-02-01T01:00:15;52.22;;;27.38;;
53650;SDS011;39552;45.776;15.892;2023-02-01T01:02:43;49.45;;;25.52;;
53650;SDS011;39552;45.776;15.892;2023-02-01T01:05:11;53.25;;;24.83;;
53650;SDS011;39552;45.776;15.892;2023-02-01T01:07:37;47.10;;;24.77;;
53650;SDS011;39552;45.776;15.892;2023-02-01T01:10:05;51.00;;;23.38;;
53650;SDS011;39552;45.776;15.892;2023-02-01T01:12:32;45.70;;;24.30;;
53650;SDS011;39552;45.776;15.892;2023-02-01T01:14:58;48.22;;;23.25;;
53650;SDS011;39552;45.776;15.892;2023-02-01T01:17:25;48.17;;;23.88;;
53650;SDS011;39552;45.776;15.892;2023-02-01T01:19:52;39.25;;;21.55;;
53650;SDS011;39552;45.776;15.892;2023-02-01T01:22:20;38.65;;;21.88;;
53650;SDS011;39552;45.776;15.892;2023-02-01T01:24:47;46.20;;;21.60;;
53650;SDS011;39552;45.776;15.892;2023-02-01T01:27:14;43.20;;;23.65;;
53650;SDS011;39552;45.776;15.892;2023-02-01T01:29:41;43.30;;;22.30;;
53650;SDS011;39552;45.776;15.892;2023-02-01T01:32:07;43.53;;;23.15;;
53650;SDS011;39552;45.776;15.892;2023-02-01T01:34:34;43.92;;;23.70;;
53650;SDS011;39552;45.776;15.892;2023-02-01T01:37:01;43.63;;;23.45;;
53650;SDS011;39552;45.776;15.892;2023-02-01T01:39:29;51.03;;;25.05;;
53650;SDS011;39552;45.776;15.892;2023-02-01T01:41:56;45.53;;;23.27;;
53650;SDS011;39552;45.776;15.892;2023-02-01T01:47:23;43.55;;;23.17;;
53650;SDS011;39552;45.776;15.892;2023-02-01T01:49:50;45.85;;;22.98;;
53650;SDS011;39552;45.776;15.892;2023-02-01T01:52:17;50.78;;;23.63;;
53650;SDS011;39552;45.776;15.892;2023-02-01T01:54:46;45.63;;;24.23;;
53650;SDS011;39552;45.776;15.892;2023-02-01T01:57:18;53.10;;;26.65;;
53650;SDS011;39552;45.776;15.892;2023-02-01T01:59:51;52.53;;;27.02;;
53650;SDS011;39552;45.776;15.892;2023-02-01T02:02:21;47.83;;;26.48;;
53650;SDS011;39552;45.776;15.892;2023-02-01T02:04:48;51.50;;;27.23;;
53650;SDS011;39552;45.776;15.892;2023-02-01T02:07:16;50.30;;;26.27;;
53650;SDS011;39552;45.776;15.892;2023-02-01T02:09:47;46.50;;;26.30;;
53650;SDS011;39552;45.776;15.892;2023-02-01T02:12:26;47.33;;;24.58;;
53650;SDS011;39552;45.776;15.892;2023-02-01T02:14:53;51.20;;;26.85;;
53650;SDS011;39552;45.776;15.892;2023-02-01T02:17:23;46.78;;;26.05;;
53650;SDS011;39552;45.776;15.892;2023-02-01T02:23:26;48.30;;;24.52;;
53650;SDS011;39552;45.776;15.892;2023-02-01T02:26:27;48.50;;;26.77;;
53650;SDS011;39552;45.776;15.892;2023-02-01T02:29:40;52.65;;;25.50;;
53650;SDS011;39552;45.776;15.892;2023-02-01T02:32:52;46.28;;;23.70;;
53650;SDS011;39552;45.776;15.892;2023-02-01T02:35:43;44.67;;;24.10;;
53650;SDS011;39552;45.776;15.892;2023-02-01T02:38:17;45.85;;;23.58;;
53650;SDS011;39552;45.776;15.892;2023-02-01T02:40:52;49.60;;;23.55;;
53650;SDS011;39552;45.776;15.892;2023-02-01T02:43:31;49.05;;;23.95;;
53650;SDS011;39552;45.776;15.892;2023-02-01T02:46:03;47.35;;;24.63;;
53650;SDS011;39552;45.776;15.892;2023-02-01T02:48:34;47.50;;;24.60;;
53650;SDS011;39552;45.776;15.892;2023-02-01T02:51:09;43.17;;;23.27;;
53650;SDS011;39552;45.776;15.892;2023-02-01T02:53:41;42.80;;;22.25;;
53650;SDS011;39552;45.776;15.892;2023-02-01T02:56:15;42.47;;;21.73;;
53650;SDS011;39552;45.776;15.892;2023-02-01T02:58:44;46.33;;;21.05;;
53650;SDS011;39552;45.776;15.892;2023-02-01T03:01:12;41.33;;;21.77;;
53650;SDS011;39552;45.776;15.892;2023-02-01T03:03:39;38.17;;;21.05;;
53650;SDS011;39552;45.776;15.892;2023-02-01T03:06:10;41.05;;;19.92;;
53650;SDS011;39552;45.776;15.892;2023-02-01T03:08:39;42.35;;;21.48;;
53650;SDS011;39552;45.776;15.892;2023-02-01T03:11:07;40.90;;;20.85;;
53650;SDS011;39552;45.776;15.892;2023-02-01T03:13:36;38.22;;;20.95;;
53650;SDS011;39552;45.776;15.892;2023-02-01T03:16:09;42.00;;;20.98;;
53650;SDS011;39552;45.776;15.892;2023-02-01T03:18:42;34.67;;;19.90;;
53650;SDS011;39552;45.776;15.892;2023-02-01T03:21:17;37.67;;;19.35;;
53650;SDS011;39552;45.776;15.892;2023-02-01T03:23:47;41.17;;;20.15;;
53650;SDS011;39552;45.776;15.892;2023-02-01T03:26:17;41.35;;;19.13;;
53650;SDS011;39552;45.776;15.892;2023-02-01T03:28:48;38.13;;;20.80;;
53650;SDS011;39552;45.776;15.892;2023-02-01T03:31:19;41.58;;;21.27;;
53650;SDS011;39552;45.776;15.892;2023-02-01T03:33:46;41.17;;;21.25;;
53650;SDS011;39552;45.776;15.892;2023-02-01T03:36:17;40.33;;;21.52;;
53650;SDS011;39552;45.776;15.892;2023-02-01T03:38:50;37.75;;;19.77;;
53650;SDS011;39552;45.776;15.892;2023-02-01T03:41:23;38.03;;;19.02;;
53650;SDS011;39552;45.776;15.892;2023-02-01T03:43:55;39.92;;;18.65;;
53650;SDS011;39552;45.776;15.892;2023-02-01T03:46:29;35.20;;;18.35;;
53650;SDS011;39552;45.776;15.892;2023-02-01T03:49:00;36.35;;;19.23;;
53650;SDS011;39552;45.776;15.892;2023-02-01T03:51:31;35.78;;;19.20;;
53650;SDS011;39552;45.776;15.892;2023-02-01T03:53:58;35.42;;;18.75;;
53650;SDS011;39552;45.776;15.892;2023-02-01T03:56:29;34.15;;;17.75;;
53650;SDS011;39552;45.776;15.892;2023-02-01T03:58:57;33.72;;;18.05;;
53650;SDS011;39552;45.776;15.892;2023-02-01T04:01:24;36.80;;;18.67;;
53650;SDS011;39552;45.776;15.892;2023-02-01T04:03:52;36.67;;;19.15;;
53650;SDS011;39552;45.776;15.892;2023-02-01T04:06:19;39.88;;;19.10;;
53650;SDS011;39552;45.776;15.892;2023-02-01T04:08:47;45.03;;;19.40;;
53650;SDS011;39552;45.776;15.892;2023-02-01T04:11:14;38.30;;;18.25;;
53650;SDS011;39552;45.776;15.892;2023-02-01T04:13:40;34.78;;;18.27;;
53650;SDS011;39552;45.776;15.892;2023-02-01T04:16:07;40.20;;;19.67;;
53650;SDS011;39552;45.776;15.892;2023-02-01T04:18:34;39.28;;;20.58;;
53650;SDS011;39552;45.776;15.892;2023-02-01T04:21:00;33.35;;;18.15;;
53650;SDS011;39552;45.776;15.892;2023-02-01T04:23:27;38.75;;;18.85;;
53650;SDS011;39552;45.776;15.892;2023-02-01T04:25:59;33.92;;;16.70;;
53650;SDS011;39552;45.776;15.892;2023-02-01T04:28:27;30.15;;;15.90;;
53650;SDS011;39552;45.776;15.892;2023-02-01T04:30:53;27.85;;;15.43;;
53650;SDS011;39552;45.776;15.892;2023-02-01T04:33:20;32.53;;;17.30;;
53650;SDS011;39552;45.776;15.892;2023-02-01T04:35:47;31.33;;;15.95;;
53650;SDS011;39552;45.776;15.892;2023-02-01T04:38:14;35.85;;;17.38;;
53650;SDS011;39552;45.776;15.892;2023-02-01T04:40:41;38.50;;;18.63;;
53650;SDS011;39552;45.776;15.892;2023-02-01T04:43:09;35.28;;;17.40;;
53650;SDS011;39552;45.776;15.892;2023-02-01T04:45:36;34.65;;;18.52;;
53650;SDS011;39552;45.776;15.892;2023-02-01T04:48:03;38.45;;;18.30;;
53650;SDS011;39552;45.776;15.892;2023-02-01T04:50:30;34.60;;;17.65;;
53650;SDS011;39552;45.776;15.892;2023-02-01T04:52:56;36.13;;;17.92;;
53650;SDS011;39552;45.776;15.892;2023-02-01T04:55:23;37.95;;;17.67;;
53650;SDS011;39552;45.776;15.892;2023-02-01T04:57:50;32.42;;;17.23;;
53650;SDS011;39552;45.776;15.892;2023-02-01T05:00:18;33.97;;;18.00;;
53650;SDS011;39552;45.776;15.892;2023-02-01T05:02:45;36.17;;;18.50;;
53650;SDS011;39552;45.776;15.892;2023-02-01T05:05:12;37.13;;;18.13;;
53650;SDS011;39552;45.776;15.892;2023-02-01T05:07:38;34.83;;;19.05;;
53650;SDS011;39552;45.776;15.892;2023-02-01T05:10:05;36.75;;;19.27;;
53650;SDS011;39552;45.776;15.892;2023-02-01T05:12:33;35.35;;;19.67;;
53650;SDS011;39552;45.776;15.892;2023-02-01T05:15:06;37.60;;;19.80;;
53650;SDS011;39552;45.776;15.892;2023-02-01T05:17:34;35.85;;;19.63;;
53650;SDS011;39552;45.776;15.892;2023-02-01T05:20:01;41.33;;;20.60;;
53650;SDS011;39552;45.776;15.892;2023-02-01T05:22:28;37.72;;;20.13;;
53650;SDS011;39552;45.776;15.892;2023-02-01T05:24:54;32.50;;;18.42;;
53650;SDS011;39552;45.776;15.892;2023-02-01T05:27:21;34.60;;;17.75;;
53650;SDS011;39552;45.776;15.892;2023-02-01T05:29:48;32.78;;;16.75;;
53650;SDS011;39552;45.776;15.892;2023-02-01T05:32:15;32.88;;;16.92;;
53650;SDS011;39552;45.776;15.892;2023-02-01T05:34:49;29.13;;;16.55;;
53650;SDS011;39552;45.776;15.892;2023-02-01T05:37:16;33.22;;;15.75;;
53650;SDS011;39552;45.776;15.892;2023-02-01T05:39:43;31.10;;;16.05;;
53650;SDS011;39552;45.776;15.892;2023-02-01T05:42:09;29.45;;;15.85;;
53650;SDS011;39552;45.776;15.892;2023-02-01T05:44:36;33.30;;;16.23;;
53650;SDS011;39552;45.776;15.892;2023-02-01T05:47:03;28.48;;;16.15;;
53650;SDS011;39552;45.776;15.892;2023-02-01T05:49:30;31.92;;;16.58;;
53650;SDS011;39552;45.776;15.892;2023-02-01T05:51:58;35.45;;;16.50;;
53650;SDS011;39552;45.776;15.892;2023-02-01T05:54:26;34.85;;;16.40;;
53650;SDS011;39552;45.776;15.892;2023-02-01T05:56:52;29.17;;;16.60;;
53650;SDS011;39552;45.776;15.892;2023-02-01T05:59:19;29.00;;;16.77;;
53650;SDS011;39552;45.776;15.892;2023-02-01T06:01:46;33.53;;;16.98;;
53650;SDS011;39552;45.776;15.892;2023-02-01T06:04:12;33.03;;;16.48;;
53650;SDS011;39552;45.776;15.892;2023-02-01T06:06:39;35.10;;;17.15;;
53650;SDS011;39552;45.776;15.892;2023-02-01T06:09:07;29.98;;;16.88;;
53650;SDS011;39552;45.776;15.892;2023-02-01T06:11:34;38.42;;;17.05;;
53650;SDS011;39552;45.776;15.892;2023-02-01T06:14:01;34.30;;;17.10;;
53650;SDS011;39552;45.776;15.892;2023-02-01T06:16:27;35.17;;;17.08;;
53650;SDS011;39552;45.776;15.892;2023-02-01T06:18:54;38.17;;;17.40;;
53650;SDS011;39552;45.776;15.892;2023-02-01T06:21:21;30.17;;;17.08;;
53650;SDS011;39552;45.776;15.892;2023-02-01T06:23:47;32.50;;;16.50;;
53650;SDS011;39552;45.776;15.892;2023-02-01T06:26:15;31.85;;;16.80;;
53650;SDS011;39552;45.776;15.892;2023-02-01T06:28:42;33.28;;;16.88;;
53650;SDS011;39552;45.776;15.892;2023-02-01T06:31:09;33.83;;;16.63;;
53650;SDS011;39552;45.776;15.892;2023-02-01T06:33:36;32.67;;;16.50;;
53650;SDS011;39552;45.776;15.892;2023-02-01T06:36:04;31.77;;;17.13;;
53650;SDS011;39552;45.776;15.892;2023-02-01T06:40:59;31.92;;;16.70;;
53650;SDS011;39552;45.776;15.892;2023-02-01T06:43:27;31.27;;;16.85;;
53650;SDS011;39552;45.776;15.892;2023-02-01T06:45:58;32.85;;;16.88;;
53650;SDS011;39552;45.776;15.892;2023-02-01T06:48:26;28.90;;;15.75;;
53650;SDS011;39552;45.776;15.892;2023-02-01T06:50:53;33.67;;;16.70;;
53650;SDS011;39552;45.776;15.892;2023-02-01T06:53:20;30.73;;;16.08;;
53650;SDS011;39552;45.776;15.892;2023-02-01T06:55:53;31.80;;;16.13;;
53650;SDS011;39552;45.776;15.892;2023-02-01T06:58:20;37.75;;;16.38;;
53650;SDS011;39552;45.776;15.892;2023-02-01T07:00:48;30.17;;;16.15;;
53650;SDS011;39552;45.776;15.892;2023-02-01T07:03:15;34.38;;;16.35;;
53650;SDS011;39552;45.776;15.892;2023-02-01T07:05:41;40.65;;;17.48;;
53650;SDS011;39552;45.776;15.892;2023-02-01T07:08:08;37.30;;;19.35;;
53650;SDS011;39552;45.776;15.892;2023-02-01T07:10:35;49.45;;;20.80;;
53650;SDS011;39552;45.776;15.892;2023-02-01T07:13:01;38.50;;;18.88;;
53650;SDS011;39552;45.776;15.892;2023-02-01T07:15:28;37.20;;;17.67;;
53650;SDS011;39552;45.776;15.892;2023-02-01T07:17:56;34.00;;;17.15;;
53650;SDS011;39552;45.776;15.892;2023-02-01T07:20:23;31.73;;;16.17;;
53650;SDS011;39552;45.776;15.892;2023-02-01T07:22:54;32.35;;;16.52;;
53650;SDS011;39552;45.776;15.892;2023-02-01T07:25:21;31.02;;;16.15;;
53650;SDS011;39552;45.776;15.892;2023-02-01T07:27:48;27.33;;;15.05;;
53650;SDS011;39552;45.776;15.892;2023-02-01T07:30:14;32.13;;;15.77;;
53650;SDS011;39552;45.776;15.892;2023-02-01T07:32:41;27.83;;;16.30;;
53650;SDS011;39552;45.776;15.892;2023-02-01T07:35:09;38.83;;;16.95;;
53650;SDS011;39552;45.776;15.892;2023-02-01T07:37:36;28.40;;;15.90;;
53650;SDS011;39552;45.776;15.892;2023-02-01T07:40:03;30.63;;;15.13;;
53650;SDS011;39552;45.776;15.892;2023-02-01T07:42:30;31.40;;;15.10;;
53650;SDS011;39552;45.776;15.892;2023-02-01T07:44:57;27.98;;;15.02;;
53650;SDS011;39552;45.776;15.892;2023-02-01T07:47:40;28.92;;;14.70;;
53650;SDS011;39552;45.776;15.892;2023-02-01T07:50:07;32.33;;;14.27;;
53650;SDS011;39552;45.776;15.892;2023-02-01T07:52:35;33.75;;;15.55;;
53650;SDS011;39552;45.776;15.892;2023-02-01T07:55:02;27.23;;;15.50;;
53650;SDS011;39552;45.776;15.892;2023-02-01T07:57:29;28.10;;;14.32;;
53650;SDS011;39552;45.776;15.892;2023-02-01T07:59:56;27.40;;;14.98;;
53650;SDS011;39552;45.776;15.892;2023-02-01T08:02:22;30.95;;;15.70;;
53650;SDS011;39552;45.776;15.892;2023-02-01T08:04:49;35.85;;;16.05;;
53650;SDS011;39552;45.776;15.892;2023-02-01T08:07:15;32.08;;;15.50;;
53650;SDS011;39552;45.776;15.892;2023-02-01T08:09:44;36.28;;;17.45;;
53650;SDS011;39552;45.776;15.892;2023-02-01T08:12:10;31.85;;;17.00;;
53650;SDS011;39552;45.776;15.892;2023-02-01T08:14:37;29.48;;;16.08;;
53650;SDS011;39552;45.776;15.892;2023-02-01T08:17:03;34.22;;;16.10;;
53650;SDS011;39552;45.776;15.892;2023-02-01T08:19:30;31.45;;;15.75;;
53650;SDS011;39552;45.776;15.892;2023-02-01T08:21:57;30.77;;;15.48;;
53650;SDS011;39552;45.776;15.892;2023-02-01T08:24:23;33.50;;;16.25;;
53650;SDS011;39552;45.776;15.892;2023-02-01T08:26:51;31.60;;;15.20;;
53650;SDS011;39552;45.776;15.892;2023-02-01T08:29:18;35.90;;;14.85;;
53650;SDS011;39552;45.776;15.892;2023-02-01T08:31:45;30.30;;;14.88;;
53650;SDS011;39552;45.776;15.892;2023-02-01T08:34:11;28.63;;;15.15;;
53650;SDS011;39552;45.776;15.892;2023-02-01T08:36:38;29.15;;;14.52;;
53650;SDS011;39552;45.776;15.892;2023-02-01T08:39:05;27.60;;;14.98;;
53650;SDS011;39552;45.776;15.892;2023-02-01T08:41:31;27.15;;;14.77;;
53650;SDS011;39552;45.776;15.892;2023-02-01T08:43:59;30.63;;;15.25;;
53650;SDS011;39552;45.776;15.892;2023-02-01T08:46:26;30.15;;;15.27;;
53650;SDS011;39552;45.776;15.892;2023-02-01T08:48:53;31.20;;;16.08;;
53650;SDS011;39552;45.776;15.892;2023-02-01T08:51:21;28.33;;;15.52;;
53650;SDS011;39552;45.776;15.892;2023-02-01T08:53:49;46.13;;;17.05;;
53650;SDS011;39552;45.776;15.892;2023-02-01T08:56:16;39.15;;;16.90;;
53650;SDS011;39552;45.776;15.892;2023-02-01T08:58:44;33.60;;;16.92;;
53650;SDS011;39552;45.776;15.892;2023-02-01T09:01:13;33.45;;;17.55;;
53650;SDS011;39552;45.776;15.892;2023-02-01T09:03:41;33.58;;;17.50;;
53650;SDS011;39552;45.776;15.892;2023-02-01T09:06:09;39.95;;;18.95;;
53650;SDS011;39552;45.776;15.892;2023-02-01T09:08:37;48.47;;;20.77;;
53650;SDS011;39552;45.776;15.892;2023-02-01T09:11:06;40.55;;;19.88;;
53650;SDS011;39552;45.776;15.892;2023-02-01T09:13:34;40.55;;;18.63;;
53650;SDS011;39552;45.776;15.892;2023-02-01T09:16:01;41.83;;;19.83;;
53650;SDS011;39552;45.776;15.892;2023-02-01T09:18:29;36.67;;;19.42;;
53650;SDS011;39552;45.776;15.892;2023-02-01T09:20:56;46.25;;;20.35;;
53650;SDS011;39552;45.776;15.892;2023-02-01T09:23:22;41.03;;;19.42;;
53650;SDS011;39552;45.776;15.892;2023-02-01T09:25:50;36.35;;;19.75;;
53650;SDS011;39552;45.776;15.892;2023-02-01T09:28:16;42.60;;;19.40;;
53650;SDS011;39552;45.776;15.892;2023-02-01T09:30:43;38.17;;;18.25;;
53650;SDS011;39552;45.776;15.892;2023-02-01T09:33:10;32.35;;;18.23;;
53650;SDS011;39552;45.776;15.892;2023-02-01T09:35:38;36.72;;;17.92;;
53650;SDS011;39552;45.776;15.892;2023-02-01T09:38:05;36.00;;;18.80;;
53650;SDS011;39552;45.776;15.892;2023-02-01T09:40:33;33.63;;;17.50;;
53650;SDS011;39552;45.776;15.892;2023-02-01T09:43:05;45.42;;;18.80;;
53650;SDS011;39552;45.776;15.892;2023-02-01T09:45:41;40.00;;;17.90;;
53650;SDS011;39552;45.776;15.892;2023-02-01T09:48:16;32.33;;;17.23;;
53650;SDS011;39552;45.776;15.892;2023-02-01T09:50:48;36.17;;;17.95;;
53650;SDS011;39552;45.776;15.892;2023-02-01T09:53:21;31.42;;;17.48;;
53650;SDS011;39552;45.776;15.892;2023-02-01T09:55:53;40.58;;;18.98;;
53650;SDS011;39552;45.776;15.892;2023-02-01T09:58:27;33.20;;;17.15;;
53650;SDS011;39552;45.776;15.892;2023-02-01T10:00:58;33.05;;;17.63;;
53650;SDS011;39552;45.776;15.892;2023-02-01T10:03:28;32.22;;;15.57;;
53650;SDS011;39552;45.776;15.892;2023-02-01T10:06:04;30.80;;;16.13;;
53650;SDS011;39552;45.776;15.892;2023-02-01T10:08:51;28.00;;;14.35;;
53650;SDS011;39552;45.776;15.892;2023-02-01T10:11:32;29.58;;;14.63;;
53650;SDS011;39552;45.776;15.892;2023-02-01T10:14:09;30.65;;;14.35;;
53650;SDS011;39552;45.776;15.892;2023-02-01T10:16:47;28.33;;;13.63;;
53650;SDS011;39552;45.776;15.892;2023-02-01T10:19:22;30.77;;;14.32;;
53650;SDS011;39552;45.776;15.892;2023-02-01T10:22:02;27.55;;;13.38;;
53650;SDS011;39552;45.776;15.892;2023-02-01T10:24:37;30.67;;;13.52;;
53650;SDS011;39552;45.776;15.892;2023-02-01T10:27:12;24.75;;;13.35;;
53650;SDS011;39552;45.776;15.892;2023-02-01T10:29:42;26.52;;;12.73;;
53650;SDS011;39552;45.776;15.892;2023-02-01T10:32:12;29.08;;;13.27;;
53650;SDS011;39552;45.776;15.892;2023-02-01T10:34:40;24.08;;;12.98;;
53650;SDS011;39552;45.776;15.892;2023-02-01T10:37:11;27.33;;;12.88;;
53650;SDS011;39552;45.776;15.892;2023-02-01T10:39:44;27.02;;;12.48;;
53650;SDS011;39552;45.776;15.892;2023-02-01T10:42:11;25.77;;;12.85;;
53650;SDS011;39552;45.776;15.892;2023-02-01T10:44:38;20.60;;;11.95;;
53650;SDS011;39552;45.776;15.892;2023-02-01T10:47:08;22.73;;;12.15;;
53650;SDS011;39552;45.776;15.892;2023-02-01T10:49:37;23.73;;;12.82;;
53650;SDS011;39552;45.776;15.892;2023-02-01T10:52:09;23.75;;;12.32;;
53650;SDS011;39552;45.776;15.892;2023-02-01T10:54:41;25.48;;;12.48;;
53650;SDS011;39552;45.776;15.892;2023-02-01T10:57:08;26.33;;;12.10;;
53650;SDS011;39552;45.776;15.892;2023-02-01T10:59:36;24.25;;;12.23;;
53650;SDS011;39552;45.776;15.892;2023-02-01T11:02:05;25.33;;;13.32;;
53650;SDS011;39552;45.776;15.892;2023-02-01T11:04:44;26.90;;;12.38;;
53650;SDS011;39552;45.776;15.892;2023-02-01T11:07:15;23.83;;;12.57;;
53650;SDS011;39552;45.776;15.892;2023-02-01T11:09:49;23.00;;;13.15;;
53650;SDS011;39552;45.776;15.892;2023-02-01T11:12:24;23.38;;;12.88;;
53650;SDS011;39552;45.776;15.892;2023-02-01T11:14:56;22.88;;;12.27;;
53650;SDS011;39552;45.776;15.892;2023-02-01T11:17:28;24.95;;;13.05;;
53650;SDS011;39552;45.776;15.892;2023-02-01T11:19:59;21.77;;;12.60;;
53650;SDS011;39552;45.776;15.892;2023-02-01T11:22:28;28.50;;;15.00;;
53650;SDS011;39552;45.776;15.892;2023-02-01T11:24:55;24.67;;;13.23;;
53650;SDS011;39552;45.776;15.892;2023-02-01T11:27:22;27.42;;;15.00;;
53650;SDS011;39552;45.776;15.892;2023-02-01T11:29:53;27.52;;;14.95;;
53650;SDS011;39552;45.776;15.892;2023-02-01T11:32:25;28.67;;;15.88;;
53650;SDS011;39552;45.776;15.892;2023-02-01T11:34:54;27.40;;;14.98;;
53650;SDS011;39552;45.776;15.892;2023-02-01T11:37:27;26.83;;;13.32;;
53650;SDS011;39552;45.776;15.892;2023-02-01T11:39:57;25.27;;;13.18;;
53650;SDS011;39552;45.776;15.892;2023-02-01T11:42:25;24.63;;;13.30;;
53650;SDS011;39552;45.776;15.892;2023-02-01T11:45:13;28.35;;;13.70;;
53650;SDS011;39552;45.776;15.892;2023-02-01T11:47:45;23.83;;;13.40;;
53650;SDS011;39552;45.776;15.892;2023-02-01T11:50:14;21.13;;;12.55;;
53650;SDS011;39552;45.776;15.892;2023-02-01T11:52:49;23.58;;;12.40;;
53650;SDS011;39552;45.776;15.892;2023-02-01T11:55:33;23.70;;;13.30;;
53650;SDS011;39552;45.776;15.892;2023-02-01T11:58:23;24.92;;;13.55;;
53650;SDS011;39552;45.776;15.892;2023-02-01T12:06:54;31.08;;;13.60;;
53650;SDS011;39552;45.776;15.892;2023-02-01T12:09:31;25.20;;;13.40;;
53650;SDS011;39552;45.776;15.892;2023-02-01T12:12:08;24.30;;;12.98;;
53650;SDS011;39552;45.776;15.892;2023-02-01T12:17:40;29.05;;;14.90;;
53650;SDS011;39552;45.776;15.892;2023-02-01T12:20:21;26.52;;;14.55;;
53650;SDS011;39552;45.776;15.892;2023-02-01T12:23:02;28.20;;;14.43;;
53650;SDS011;39552;45.776;15.892;2023-02-01T12:25:51;24.23;;;13.05;;
53650;SDS011;39552;45.776;15.892;2023-02-01T12:31:38;22.80;;;12.80;;
53650;SDS011;39552;45.776;15.892;2023-02-01T12:34:19;19.20;;;11.90;;
53650;SDS011;39552;45.776;15.892;2023-02-01T12:37:03;22.52;;;11.35;;
53650;SDS011;39552;45.776;15.892;2023-02-01T12:39:43;21.55;;;12.32;;
53650;SDS011;39552;45.776;15.892;2023-02-01T12:42:24;19.05;;;11.25;;
53650;SDS011;39552;45.776;15.892;2023-02-01T12:44:56;18.10;;;11.60;;
53650;SDS011;39552;45.776;15.892;2023-02-01T12:47:27;15.70;;;10.52;;
53650;SDS011;39552;45.776;15.892;2023-02-01T12:50:00;19.38;;;10.93;;
53650;SDS011;39552;45.776;15.892;2023-02-01T12:52:32;19.35;;;10.30;;
53650;SDS011;39552;45.776;15.892;2023-02-01T12:55:06;17.35;;;9.45;;
53650;SDS011;39552;45.776;15.892;2023-02-01T12:57:43;16.60;;;10.27;;
53650;SDS011;39552;45.776;15.892;2023-02-01T13:00:16;29.40;;;10.55;;
53650;SDS011;39552;45.776;15.892;2023-02-01T13:02:51;17.42;;;10.32;;
53650;SDS011;39552;45.776;15.892;2023-02-01T13:05:21;19.48;;;10.52;;
53650;SDS011;39552;45.776;15.892;2023-02-01T13:07:55;18.10;;;10.25;;
53650;SDS011;39552;45.776;15.892;2023-02-01T13:10:29;17.25;;;10.15;;
53650;SDS011;39552;45.776;15.892;2023-02-01T13:13:04;17.90;;;10.18;;
53650;SDS011;39552;45.776;15.892;2023-02-01T13:15:39;19.55;;;11.48;;
53650;SDS011;39552;45.776;15.892;2023-02-01T13:18:09;22.23;;;11.25;;
53650;SDS011;39552;45.776;15.892;2023-02-01T13:20:45;18.83;;;11.65;;
53650;SDS011;39552;45.776;15.892;2023-02-01T13:23:18;18.33;;;11.10;;
53650;SDS011;39552;45.776;15.892;2023-02-01T13:25:51;24.67;;;12.55;;
53650;SDS011;39552;45.776;15.892;2023-02-01T13:28:23;21.63;;;13.20;;
53650;SDS011;39552;45.776;15.892;2023-02-01T13:33:56;17.65;;;11.90;;
53650;SDS011;39552;45.776;15.892;2023-02-01T13:36:42;19.00;;;12.20;;
53650;SDS011;39552;45.776;15.892;2023-02-01T13:39:20;20.63;;;12.82;;
53650;SDS011;39552;45.776;15.892;2023-02-01T13:42:03;20.42;;;13.02;;
53650;SDS011;39552;45.776;15.892;2023-02-01T13:44:40;25.27;;;14.25;;
53650;SDS011;39552;45.776;15.892;2023-02-01T13:47:12;22.85;;;12.80;;
53650;SDS011;39552;45.776;15.892;2023-02-01T13:49:47;25.63;;;13.50;;
53650;SDS011;39552;45.776;15.892;2023-02-01T13:52:23;20.35;;;13.60;;
53650;SDS011;39552;45.776;15.892;2023-02-01T13:55:03;25.02;;;13.23;;
53650;SDS011;39552;45.776;15.892;2023-02-01T13:57:42;24.35;;;14.50;;
53650;SDS011;39552;45.776;15.892;2023-02-01T14:00:23;27.05;;;15.27;;
53650;SDS011;39552;45.776;15.892;2023-02-01T14:05:58;23.30;;;14.98;;
53650;SDS011;39552;45.776;15.892;2023-02-01T14:08:43;20.52;;;13.43;;
53650;SDS011;39552;45.776;15.892;2023-02-01T14:14:06;22.35;;;14.30;;
53650;SDS011;39552;45.776;15.892;2023-02-01T14:19:49;24.85;;;15.27;;
53650;SDS011;39552;45.776;15.892;2023-02-01T14:23:12;25.20;;;14.52;;
53650;SDS011;39552;45.776;15.892;2023-02-01T14:28:28;26.90;;;13.80;;
53650;SDS011;39552;45.776;15.892;2023-02-01T14:30:56;26.45;;;13.95;;
53650;SDS011;39552;45.776;15.892;2023-02-01T14:33:24;22.35;;;14.13;;
53650;SDS011;39552;45.776;15.892;2023-02-01T14:35:59;27.38;;;14.50;;
53650;SDS011;39552;45.776;15.892;2023-02-01T14:38:31;22.88;;;12.82;;
53650;SDS011;39552;45.776;15.892;2023-02-01T14:41:12;29.27;;;13.43;;
53650;SDS011;39552;45.776;15.892;2023-02-01T14:43:50;26.10;;;13.88;;
53650;SDS011;39552;45.776;15.892;2023-02-01T14:46:17;30.10;;;14.27;;
53650;SDS011;39552;45.776;15.892;2023-02-01T14:48:45;26.08;;;13.85;;
53650;SDS011;39552;45.776;15.892;2023-02-01T14:51:14;23.45;;;14.10;;
53650;SDS011;39552;45.776;15.892;2023-02-01T14:53:44;30.77;;;13.20;;
53650;SDS011;39552;45.776;15.892;2023-02-01T14:56:12;21.65;;;12.10;;
53650;SDS011;39552;45.776;15.892;2023-02-01T14:58:44;23.65;;;13.05;;
53650;SDS011;39552;45.776;15.892;2023-02-01T15:01:18;23.08;;;13.38;;
53650;SDS011;39552;45.776;15.892;2023-02-01T15:03:51;25.00;;;13.38;;